Ternholm — OWIM2 — position and weather

sailwx.info

Track history (hours):
 
Tides and Currents Weather Stations Pressure Air Temp Water Temp Dewpoint Dewpoint Depression Visibility Wind Speed Wind Dir Waves Ship Positions

Ternholm

Last reported at 2014-Oct-02 05:34 UTC. Time now 2014-Oct-02 06:35 UTC.
Position N 54°25' E 011°50'.

Length 141 m; draft 8.9 m.

Type: Ship (hazmat cat C). MMSI: 219076000.

Date/timePositionNaut miles runAvg speedWind from/ knotsBaromVisibWave heightAir tempDewpointWater temp
2014-Oct-02 05:34N 54°25' E 011°50'1212.1
2014-Oct-02 04:33N 54°30' E 011°31'1313.0
2014-Oct-02 03:34N 54°35' E 011°10'10410.4
2014-Oct-01 17:32N 56°19' E 011°25'2412.1
2014-Oct-01 15:33N 56°40' E 011°46'1311.3
2014-Oct-01 14:23N 56°53' E 011°47'1012.4
2014-Oct-01 13:33N 57°03' E 011°41'1212.3
2014-Oct-01 12:34N 57°14' E 011°33'1212.2
2014-Oct-01 11:34N 57°26' E 011°25'1211.8
2014-Oct-01 10:34N 57°35' E 011°39'10 9.6
2014-Oct-01 09:34N 57°41' E 011°52'0 0.1
2014-Oct-01 08:31N 57°41' E 011°52'0 0.0
2014-Oct-01 07:31N 57°41' E 011°52'0 0.0
2014-Oct-01 06:31N 57°41' E 011°52'0 0.0
2014-Oct-01 05:31N 57°41' E 011°52'0 0.0
2014-Oct-01 04:31N 57°41' E 011°52'0 0.0
2014-Oct-01 03:31N 57°41' E 011°52'0 0.0
2014-Oct-01 02:31N 57°41' E 011°52'0 0.0
2014-Oct-01 01:31N 57°41' E 011°52'0 0.0
2014-Oct-01 00:31N 57°41' E 011°52'0 0.0
2014-Sep-30 23:31N 57°41' E 011°52'0 0.0
2014-Sep-30 22:31N 57°41' E 011°52'0 0.0
2014-Sep-30 21:31N 57°41' E 011°52'0 0.0
2014-Sep-30 20:31N 57°41' E 011°52'0 0.0
2014-Sep-30 19:31N 57°41' E 011°52'0 0.0
2014-Sep-30 18:31N 57°41' E 011°52'0 0.0
2014-Sep-30 17:31N 57°41' E 011°52'0 0.0
2014-Sep-30 16:31N 57°41' E 011°52'0 0.2
2014-Sep-30 15:31N 57°41' E 011°53'0 0.0
2014-Sep-30 14:31N 57°41' E 011°53'0 0.0
2014-Sep-30 13:31N 57°41' E 011°53'0 0.0
2014-Sep-30 12:31N 57°41' E 011°53'0 0.0
2014-Sep-30 11:31N 57°41' E 011°53'0 0.0
2014-Sep-30 10:31N 57°41' E 011°53'0 0.0
2014-Sep-30 09:31N 57°41' E 011°53'0 0.0
2014-Sep-30 08:31N 57°41' E 011°53'0 0.0
2014-Sep-30 07:34N 57°41' E 011°53'0 0.0
2014-Sep-30 06:30N 57°41' E 011°53'0 0.0
2014-Sep-30 05:33N 57°41' E 011°53'0 0.0
2014-Sep-30 04:33N 57°41' E 011°53'0 0.0
2014-Sep-30 03:33N 57°41' E 011°53'0 0.0
2014-Sep-30 02:33N 57°41' E 011°53'0 0.0
2014-Sep-30 01:33N 57°41' E 011°53'0 0.0
2014-Sep-30 00:33N 57°41' E 011°53'0 0.0
2014-Sep-29 23:33N 57°41' E 011°53'0 0.0
2014-Sep-29 22:33N 57°41' E 011°53'1 0.8
2014-Sep-29 21:34N 57°41' E 011°51'1010.4
2014-Sep-29 20:33N 57°37' E 011°34'10 9.9
2014-Sep-29 19:33N 57°43' E 011°19'1111.0
2014-Sep-29 18:34N 57°53' E 011°13'1110.9
2014-Sep-29 17:33N 58°04' E 011°08'1110.5
2014-Sep-29 16:33N 58°14' E 011°02'1010.2
2014-Sep-29 15:34N 58°24' E 010°57'1010.2
2014-Sep-29 14:33N 58°33' E 010°52'1010.4
2014-Sep-29 13:33N 58°43' E 010°46'1110.5
2014-Sep-29 12:32N 58°54' E 010°40'1010.5
2014-Sep-29 11:33N 59°04' E 010°36'9 9.5
2014-Sep-29 10:33N 59°13' E 010°37'7 7.0
2014-Sep-29 09:32N 59°20' E 010°31'0 0.0
2014-Sep-29 08:32N 59°20' E 010°31'0 0.0
2014-Sep-29 07:29N 59°20' E 010°31'0 0.0
2014-Sep-29 06:32N 59°20' E 010°31'0 0.0
2014-Sep-29 05:26N 59°20' E 010°31'0 0.0
2014-Sep-29 02:10N 59°20' E 010°31'0 0.0
2014-Sep-28 23:31N 59°20' E 010°31'0 0.0
2014-Sep-28 22:28N 59°20' E 010°31'0 0.0
2014-Sep-28 21:28N 59°20' E 010°31'0 0.0
2014-Sep-28 20:28N 59°20' E 010°31'0 0.0
2014-Sep-28 19:31N 59°20' E 010°31'0 0.3
2014-Sep-28 18:33N 59°20' E 010°31'9 9.3
2014-Sep-28 17:33N 59°11' E 010°37'1010.4
2014-Sep-28 16:33N 59°01' E 010°35'1010.1
2014-Sep-28 15:33N 58°51' E 010°39'1010.2
2014-Sep-28 14:33N 58°41' E 010°44'1010.2
2014-Sep-28 13:33N 58°31' E 010°50'1010.3
2014-Sep-28 12:33N 58°21' E 010°57'1010.2
2014-Sep-28 11:33N 58°12' E 011°02'1010.4
2014-Sep-28 10:33N 58°02' E 011°08'1111.0
2014-Sep-28 09:33N 57°51' E 011°14'1110.5
2014-Sep-28 08:33N 57°41' E 011°19'1010.0
2014-Sep-28 07:33N 57°31' E 011°25'1010.4
2014-Sep-28 06:33N 57°22' E 011°31'1110.5
2014-Sep-28 05:33N 57°12' E 011°38'1010.4
2014-Sep-28 04:33N 57°02' E 011°45'1010.2
2014-Sep-28 03:33N 56°52' E 011°50'1110.8
2014-Sep-28 02:33N 56°42' E 011°57'1110.6
2014-Sep-28 01:33N 56°32' E 012°01'1110.6
2014-Sep-28 00:33N 56°22' E 012°07'1010.3
2014-Sep-27 23:33N 56°14' E 012°19'1010.4
2014-Sep-27 22:33N 56°07' E 012°33'10 9.6
2014-Sep-27 21:33N 55°59' E 012°42'9 9.1
2014-Sep-27 20:33N 55°50' E 012°46'9 9.4
2014-Sep-27 19:33N 55°42' E 012°54'7 7.0
2014-Sep-27 18:33N 55°35' E 012°50'9 9.4
2014-Sep-27 17:33N 55°27' E 012°43'10 9.5
2014-Sep-27 16:33N 55°17' E 012°46'1111.3
2014-Sep-27 15:33N 55°15' E 013°06'1111.1
2014-Sep-27 14:33N 55°14' E 013°25'1111.0
2014-Sep-27 13:33N 55°14' E 013°44'1111.3
2014-Sep-27 12:34N 55°13' E 014°04'10 9.7
2014-Sep-27 11:33N 55°16' E 014°20'1111.0
2014-Sep-27 10:33N 55°25' E 014°32'1111.1
2014-Sep-27 09:34N 55°31' E 014°48'1110.9
2014-Sep-27 08:33N 55°37' E 015°05'1411.3
2014-Sep-27 07:20N 55°44' E 015°26'912.1
2014-Sep-27 06:33N 55°48' E 015°41'1612.0
2014-Sep-27 05:15N 55°56' E 016°05'812.0
2014-Sep-27 04:33N 56°00' E 016°18'6111.6
2014-Sep-26 23:17N 56°52' E 017°16'912.2
2014-Sep-26 22:33N 57°01' E 017°21'1212.1
2014-Sep-26 21:33N 57°12' E 017°29'1212.0
2014-Sep-26 20:33N 57°23' E 017°37'1311.4
2014-Sep-26 19:27N 57°34' E 017°48'  
Track history (hours):
 
Tides and Currents Weather Stations Pressure Air Temp Water Temp Dewpoint Dewpoint Depression Visibility Wind Speed Wind Dir Waves Ship Positions

Ternholm

Last reported at 2014-Oct-02 05:34 UTC. Time now 2014-Oct-02 06:35 UTC.
Position N 54°25' E 011°50'.

Length 141 m; draft 8.9 m.

Type: Ship (hazmat cat C). MMSI: 219076000.

Date/timePositionNaut miles runAvg speedWind from/ knotsBaromVisibWave heightAir tempDewpointWater temp
2014-Oct-02 05:34N 54°25' E 011°50'1212.1
2014-Oct-02 04:33N 54°30' E 011°31'1313.0
2014-Oct-02 03:34N 54°35' E 011°10'10410.4
2014-Oct-01 17:32N 56°19' E 011°25'2412.1
2014-Oct-01 15:33N 56°40' E 011°46'1311.3
2014-Oct-01 14:23N 56°53' E 011°47'1012.4
2014-Oct-01 13:33N 57°03' E 011°41'1212.3
2014-Oct-01 12:34N 57°14' E 011°33'1212.2
2014-Oct-01 11:34N 57°26' E 011°25'1211.8
2014-Oct-01 10:34N 57°35' E 011°39'10 9.6
2014-Oct-01 09:34N 57°41' E 011°52'0 0.1
2014-Oct-01 08:31N 57°41' E 011°52'0 0.0
2014-Oct-01 07:31N 57°41' E 011°52'0 0.0
2014-Oct-01 06:31N 57°41' E 011°52'0 0.0
2014-Oct-01 05:31N 57°41' E 011°52'0 0.0
2014-Oct-01 04:31N 57°41' E 011°52'0 0.0
2014-Oct-01 03:31N 57°41' E 011°52'0 0.0
2014-Oct-01 02:31N 57°41' E 011°52'0 0.0
2014-Oct-01 01:31N 57°41' E 011°52'0 0.0
2014-Oct-01 00:31N 57°41' E 011°52'0 0.0
2014-Sep-30 23:31N 57°41' E 011°52'0 0.0
2014-Sep-30 22:31N 57°41' E 011°52'0 0.0
2014-Sep-30 21:31N 57°41' E 011°52'0 0.0
2014-Sep-30 20:31N 57°41' E 011°52'0 0.0
2014-Sep-30 19:31N 57°41' E 011°52'0 0.0
2014-Sep-30 18:31N 57°41' E 011°52'0 0.0
2014-Sep-30 17:31N 57°41' E 011°52'0 0.0
2014-Sep-30 16:31N 57°41' E 011°52'0 0.2
2014-Sep-30 15:31N 57°41' E 011°53'0 0.0
2014-Sep-30 14:31N 57°41' E 011°53'0 0.0
2014-Sep-30 13:31N 57°41' E 011°53'0 0.0
2014-Sep-30 12:31N 57°41' E 011°53'0 0.0
2014-Sep-30 11:31N 57°41' E 011°53'0 0.0
2014-Sep-30 10:31N 57°41' E 011°53'0 0.0
2014-Sep-30 09:31N 57°41' E 011°53'0 0.0
2014-Sep-30 08:31N 57°41' E 011°53'0 0.0
2014-Sep-30 07:34N 57°41' E 011°53'0 0.0
2014-Sep-30 06:30N 57°41' E 011°53'0 0.0
2014-Sep-30 05:33N 57°41' E 011°53'0 0.0
2014-Sep-30 04:33N 57°41' E 011°53'0 0.0
2014-Sep-30 03:33N 57°41' E 011°53'0 0.0
2014-Sep-30 02:33N 57°41' E 011°53'0 0.0
2014-Sep-30 01:33N 57°41' E 011°53'0 0.0
2014-Sep-30 00:33N 57°41' E 011°53'0 0.0
2014-Sep-29 23:33N 57°41' E 011°53'0 0.0
2014-Sep-29 22:33N 57°41' E 011°53'1 0.8
2014-Sep-29 21:34N 57°41' E 011°51'1010.4
2014-Sep-29 20:33N 57°37' E 011°34'10 9.9
2014-Sep-29 19:33N 57°43' E 011°19'1111.0
2014-Sep-29 18:34N 57°53' E 011°13'1110.9
2014-Sep-29 17:33N 58°04' E 011°08'1110.5
2014-Sep-29 16:33N 58°14' E 011°02'1010.2
2014-Sep-29 15:34N 58°24' E 010°57'1010.2
2014-Sep-29 14:33N 58°33' E 010°52'1010.4
2014-Sep-29 13:33N 58°43' E 010°46'1110.5
2014-Sep-29 12:32N 58°54' E 010°40'1010.5
2014-Sep-29 11:33N 59°04' E 010°36'9 9.5
2014-Sep-29 10:33N 59°13' E 010°37'7 7.0
2014-Sep-29 09:32N 59°20' E 010°31'0 0.0
2014-Sep-29 08:32N 59°20' E 010°31'0 0.0
2014-Sep-29 07:29N 59°20' E 010°31'0 0.0
2014-Sep-29 06:32N 59°20' E 010°31'0 0.0
2014-Sep-29 05:26N 59°20' E 010°31'0 0.0
2014-Sep-29 02:10N 59°20' E 010°31'0 0.0
2014-Sep-28 23:31N 59°20' E 010°31'0 0.0
2014-Sep-28 22:28N 59°20' E 010°31'0 0.0
2014-Sep-28 21:28N 59°20' E 010°31'0 0.0
2014-Sep-28 20:28N 59°20' E 010°31'0 0.0
2014-Sep-28 19:31N 59°20' E 010°31'0 0.3
2014-Sep-28 18:33N 59°20' E 010°31'9 9.3
2014-Sep-28 17:33N 59°11' E 010°37'1010.4
2014-Sep-28 16:33N 59°01' E 010°35'1010.1
2014-Sep-28 15:33N 58°51' E 010°39'1010.2
2014-Sep-28 14:33N 58°41' E 010°44'1010.2
2014-Sep-28 13:33N 58°31' E 010°50'1010.3
2014-Sep-28 12:33N 58°21' E 010°57'1010.2
2014-Sep-28 11:33N 58°12' E 011°02'1010.4
2014-Sep-28 10:33N 58°02' E 011°08'1111.0
2014-Sep-28 09:33N 57°51' E 011°14'1110.5
2014-Sep-28 08:33N 57°41' E 011°19'1010.0
2014-Sep-28 07:33N 57°31' E 011°25'1010.4
2014-Sep-28 06:33N 57°22' E 011°31'1110.5
2014-Sep-28 05:33N 57°12' E 011°38'1010.4
2014-Sep-28 04:33N 57°02' E 011°45'1010.2
2014-Sep-28 03:33N 56°52' E 011°50'1110.8
2014-Sep-28 02:33N 56°42' E 011°57'1110.6
2014-Sep-28 01:33N 56°32' E 012°01'1110.6
2014-Sep-28 00:33N 56°22' E 012°07'1010.3
2014-Sep-27 23:33N 56°14' E 012°19'1010.4
2014-Sep-27 22:33N 56°07' E 012°33'10 9.6
2014-Sep-27 21:33N 55°59' E 012°42'9 9.1
2014-Sep-27 20:33N 55°50' E 012°46'9 9.4
2014-Sep-27 19:33N 55°42' E 012°54'7 7.0
2014-Sep-27 18:33N 55°35' E 012°50'9 9.4
2014-Sep-27 17:33N 55°27' E 012°43'10 9.5
2014-Sep-27 16:33N 55°17' E 012°46'1111.3
2014-Sep-27 15:33N 55°15' E 013°06'1111.1
2014-Sep-27 14:33N 55°14' E 013°25'1111.0
2014-Sep-27 13:33N 55°14' E 013°44'1111.3
2014-Sep-27 12:34N 55°13' E 014°04'10 9.7
2014-Sep-27 11:33N 55°16' E 014°20'1111.0
2014-Sep-27 10:33N 55°25' E 014°32'1111.1
2014-Sep-27 09:34N 55°31' E 014°48'1110.9
2014-Sep-27 08:33N 55°37' E 015°05'1411.3
2014-Sep-27 07:20N 55°44' E 015°26'912.1
2014-Sep-27 06:33N 55°48' E 015°41'1612.0
2014-Sep-27 05:15N 55°56' E 016°05'812.0
2014-Sep-27 04:33N 56°00' E 016°18'6111.6
2014-Sep-26 23:17N 56°52' E 017°16'912.2
2014-Sep-26 22:33N 57°01' E 017°21'1212.1
2014-Sep-26 21:33N 57°12' E 017°29'1212.0
2014-Sep-26 20:33N 57°23' E 017°37'1311.4
2014-Sep-26 19:27N 57°34' E 017°48'  

Dump ship's entire track history